createdAt,value
2023-12-24T00:01:45.467Z,4.20
2023-12-24T00:04:31.911Z,4.20
2023-12-24T00:07:18.514Z,4.50
2023-12-24T00:10:05.692Z,5.40
2023-12-24T00:12:52.409Z,4.40
2023-12-24T00:15:39.407Z,4.40
2023-12-24T00:18:26.030Z,4.50
2023-12-24T00:21:15.673Z,5.30
2023-12-24T00:24:01.988Z,4.70
2023-12-24T00:26:48.222Z,3.70
2023-12-24T00:29:34.708Z,4.60
2023-12-24T00:32:21.406Z,5.10
2023-12-24T00:35:08.083Z,5.30
2023-12-24T00:37:57.554Z,5.30
2023-12-24T00:40:44.008Z,4.00
2023-12-24T00:43:30.766Z,4.50
2023-12-24T00:46:17.529Z,3.80
2023-12-24T00:49:04.055Z,4.40
2023-12-24T00:51:51.593Z,5.30
2023-12-24T00:54:38.100Z,4.40
2023-12-24T00:57:25.944Z,4.00
2023-12-24T01:00:13.049Z,4.50
2023-12-24T01:02:59.593Z,4.50
2023-12-24T01:05:45.996Z,4.00
2023-12-24T01:08:32.445Z,4.50
2023-12-24T01:11:19.034Z,4.10
2023-12-24T01:14:05.215Z,4.40
2023-12-24T01:16:51.533Z,4.70
2023-12-24T01:19:37.517Z,4.00
2023-12-24T01:22:23.681Z,3.60
2023-12-24T01:25:12.988Z,3.70
2023-12-24T01:27:59.247Z,3.80
2023-12-24T01:30:45.507Z,4.50
2023-12-24T01:33:32.154Z,4.80
2023-12-24T01:36:18.619Z,3.60
2023-12-24T01:39:04.808Z,4.60
2023-12-24T01:41:50.685Z,3.80
2023-12-24T01:44:36.862Z,4.20
2023-12-24T01:47:23.767Z,3.60
2023-12-24T01:50:11.188Z,4.30
2023-12-24T01:52:57.376Z,4.10
2023-12-24T01:55:44.371Z,4.90
2023-12-24T01:58:30.832Z,4.00
2023-12-24T02:01:17.278Z,4.00
2023-12-24T02:04:03.892Z,4.30
2023-12-24T02:06:52.100Z,3.60
2023-12-24T02:09:39.452Z,4.90
2023-12-24T02:12:25.710Z,3.60
2023-12-24T02:15:12.161Z,3.80
2023-12-24T02:18:00.610Z,3.70
2023-12-24T02:20:48.492Z,4.20
2023-12-24T02:23:35.205Z,4.10
2023-12-24T02:26:32.246Z,3.60
2023-12-24T02:29:27.649Z,3.80
2023-12-24T02:32:16.536Z,4.40
2023-12-24T02:35:04.335Z,4.30
2023-12-24T02:37:50.999Z,3.50
2023-12-24T02:40:37.286Z,3.80
2023-12-24T02:43:23.356Z,3.40
2023-12-24T02:46:09.610Z,3.90
2023-12-24T02:48:55.700Z,4.40
2023-12-24T02:51:42.170Z,3.90
2023-12-24T02:54:28.148Z,3.70
2023-12-24T02:57:14.014Z,4.10
2023-12-24T03:00:00.421Z,3.90
2023-12-24T03:02:47.469Z,4.40
2023-12-24T03:05:33.960Z,3.30
2023-12-24T03:08:20.329Z,3.50
2023-12-24T03:11:06.891Z,3.60
2023-12-24T03:13:53.416Z,4.00
2023-12-24T03:16:39.815Z,4.60
2023-12-24T03:19:26.110Z,3.80
2023-12-24T03:22:12.517Z,4.00
2023-12-24T03:24:58.666Z,3.90
2023-12-24T03:27:44.846Z,3.50
2023-12-24T03:30:31.274Z,4.10
2023-12-24T03:33:17.519Z,3.30
2023-12-24T03:36:04.020Z,4.10
2023-12-24T03:38:50.332Z,3.50
2023-12-24T03:41:36.392Z,3.80
2023-12-24T03:44:22.705Z,3.40
2023-12-24T03:47:08.711Z,3.60
2023-12-24T03:49:54.576Z,5.00
2023-12-24T03:52:41.238Z,4.10
2023-12-24T03:55:27.270Z,3.60
2023-12-24T03:58:14.013Z,3.70
2023-12-24T04:01:00.552Z,3.20
2023-12-24T04:03:47.931Z,3.90
2023-12-24T04:06:34.262Z,4.00
2023-12-24T04:09:20.978Z,3.40
2023-12-24T04:12:07.327Z,4.00
2023-12-24T04:14:53.558Z,3.70
2023-12-24T04:17:39.775Z,4.00
2023-12-24T04:20:25.842Z,3.90
2023-12-24T04:23:12.746Z,3.60
2023-12-24T04:25:58.874Z,3.90
2023-12-24T04:28:45.386Z,3.10
2023-12-24T04:31:31.904Z,3.50
2023-12-24T04:34:18.119Z,3.80
2023-12-24T04:37:04.542Z,3.40
2023-12-24T04:39:50.887Z,3.70
2023-12-24T04:42:37.172Z,3.80
2023-12-24T04:45:23.233Z,3.40
2023-12-24T04:48:09.286Z,3.90
2023-12-24T04:50:55.393Z,3.60
2023-12-24T04:53:42.011Z,3.80
2023-12-24T04:56:30.405Z,4.20
2023-12-24T04:59:16.884Z,3.40
2023-12-24T05:02:03.924Z,3.70
2023-12-24T05:04:50.781Z,3.80
2023-12-24T05:07:37.081Z,3.60
2023-12-24T05:10:22.966Z,3.50
2023-12-24T05:13:11.952Z,3.60
2023-12-24T05:15:58.084Z,3.80
2023-12-24T05:18:44.058Z,3.20
2023-12-24T05:21:30.990Z,3.80
2023-12-24T05:24:17.686Z,3.60
2023-12-24T05:27:04.102Z,3.70
2023-12-24T05:29:50.039Z,3.90
2023-12-24T05:32:36.235Z,3.20
2023-12-24T05:35:22.494Z,3.50
2023-12-24T05:38:08.614Z,4.50
2023-12-24T05:40:55.444Z,3.70
2023-12-24T05:43:41.953Z,4.60
2023-12-24T05:46:28.300Z,3.30
2023-12-24T05:49:14.263Z,4.10
2023-12-24T05:52:00.740Z,4.90
2023-12-24T05:54:47.065Z,3.90
2023-12-24T05:57:32.983Z,4.40
2023-12-24T06:00:19.157Z,4.00
2023-12-24T06:03:05.678Z,4.30
2023-12-24T06:05:52.140Z,3.80
2023-12-24T06:08:39.681Z,5.00
2023-12-24T06:11:26.346Z,4.70
2023-12-24T06:14:12.789Z,4.10
2023-12-24T06:16:59.505Z,4.20
2023-12-24T06:19:46.097Z,4.00
2023-12-24T06:22:32.486Z,4.60
2023-12-24T06:25:20.438Z,3.90
2023-12-24T06:28:06.775Z,3.90
2023-12-24T06:30:52.763Z,4.20
2023-12-24T06:33:38.827Z,4.40
2023-12-24T06:36:25.290Z,5.30
2023-12-24T06:39:13.035Z,4.70
2023-12-24T06:41:59.356Z,5.00
2023-12-24T06:44:45.426Z,6.00
2023-12-24T06:47:32.052Z,5.10
2023-12-24T06:50:19.090Z,4.80
2023-12-24T06:53:07.056Z,4.40
2023-12-24T06:55:53.150Z,4.90
2023-12-24T06:58:39.405Z,4.90
2023-12-24T07:01:25.376Z,5.20
2023-12-24T07:04:11.598Z,4.60
2023-12-24T07:06:57.840Z,4.80
2023-12-24T07:09:43.762Z,4.80
2023-12-24T07:12:31.327Z,4.10
2023-12-24T07:15:17.748Z,4.80
2023-12-24T07:18:04.109Z,4.70
2023-12-24T07:20:50.689Z,5.20
2023-12-24T07:23:38.920Z,6.20
2023-12-24T07:26:25.184Z,4.80
2023-12-24T07:29:11.074Z,5.80
2023-12-24T07:31:57.019Z,5.10
2023-12-24T07:34:43.132Z,5.20
2023-12-24T07:37:29.012Z,5.00
2023-12-24T07:40:15.311Z,6.10
2023-12-24T07:43:02.695Z,5.20
2023-12-24T07:45:48.908Z,5.30
2023-12-24T07:48:34.987Z,5.60
2023-12-24T07:51:21.432Z,5.00
2023-12-24T07:54:07.320Z,4.60
2023-12-24T07:56:53.302Z,4.60
2023-12-24T07:59:39.324Z,4.80
2023-12-24T08:02:26.038Z,5.20
2023-12-24T08:05:12.552Z,5.10
2023-12-24T08:07:59.068Z,4.90
2023-12-24T08:10:45.004Z,4.60
2023-12-24T08:13:31.045Z,4.30
2023-12-24T08:16:17.044Z,5.90
2023-12-24T08:19:03.971Z,5.60
2023-12-24T08:21:50.268Z,5.50
2023-12-24T08:24:36.437Z,5.60
2023-12-24T08:27:22.804Z,6.40
2023-12-24T08:30:09.823Z,5.60
2023-12-24T08:32:56.464Z,5.60
2023-12-24T08:35:43.195Z,5.40
2023-12-24T08:38:29.617Z,5.40
2023-12-24T08:41:15.659Z,6.00
2023-12-24T08:44:01.710Z,5.10
2023-12-24T08:46:49.923Z,5.70
2023-12-24T08:49:36.034Z,4.60
2023-12-24T08:52:22.668Z,5.00
2023-12-24T08:55:09.310Z,5.10
2023-12-24T08:57:55.517Z,5.40
2023-12-24T09:00:41.612Z,5.00
2023-12-24T09:03:27.689Z,4.80
2023-12-24T09:06:14.450Z,4.60
2023-12-24T09:09:00.764Z,4.40
2023-12-24T09:11:48.615Z,5.30
2023-12-24T09:14:34.567Z,4.90
2023-12-24T09:17:21.315Z,4.30
2023-12-24T09:20:08.693Z,4.40
2023-12-24T09:22:55.163Z,4.30
2023-12-24T09:25:41.498Z,4.10
2023-12-24T09:28:27.513Z,4.10
2023-12-24T09:31:13.613Z,4.10
2023-12-24T09:34:00.896Z,4.70
2023-12-24T09:36:47.125Z,4.20
2023-12-24T09:39:34.238Z,4.80
2023-12-24T09:42:20.688Z,3.70
2023-12-24T09:45:06.976Z,4.10
2023-12-24T09:47:53.227Z,4.10
2023-12-24T09:50:39.525Z,4.50
2023-12-24T09:53:25.671Z,4.50
2023-12-24T09:56:12.057Z,3.80
2023-12-24T09:59:01.499Z,5.30
2023-12-24T10:04:35.900Z,3.90
2023-12-24T10:07:21.877Z,4.40
2023-12-24T10:10:12.436Z,3.90
2023-12-24T10:13:06.608Z,4.30
2023-12-24T10:16:04.085Z,4.00
2023-12-24T10:18:51.776Z,4.60
2023-12-24T10:21:38.376Z,4.20
2023-12-24T10:24:24.124Z,4.20
2023-12-24T10:27:11.904Z,4.10
2023-12-24T10:30:15.398Z,4.00
2023-12-24T10:33:12.897Z,3.20
2023-12-24T10:35:59.440Z,3.40
2023-12-24T10:38:45.526Z,4.90
2023-12-24T10:41:31.606Z,4.40
2023-12-24T10:44:18.572Z,5.10
2023-12-24T10:47:05.310Z,6.40
2023-12-24T10:49:53.257Z,5.70
2023-12-24T10:52:39.461Z,5.50
2023-12-24T10:55:26.358Z,4.60
2023-12-24T10:58:19.528Z,3.90
2023-12-24T11:01:10.578Z,3.70
2023-12-24T11:03:58.048Z,3.30
2023-12-24T11:06:44.594Z,3.50
2023-12-24T11:09:33.409Z,3.70
2023-12-24T11:12:37.753Z,3.90
2023-12-24T11:15:40.920Z,3.60
2023-12-24T11:18:48.406Z,3.80
2023-12-24T11:22:13.871Z,3.70
2023-12-24T11:25:17.794Z,4.30
2023-12-24T11:28:09.185Z,3.40
2023-12-24T11:30:55.179Z,3.50
2023-12-24T11:33:48.159Z,5.00
2023-12-24T11:36:34.423Z,4.50
2023-12-24T11:39:20.588Z,4.80
2023-12-24T11:42:07.293Z,5.30
2023-12-24T11:44:57.382Z,6.00
2023-12-24T11:47:44.354Z,5.00
2023-12-24T11:50:30.920Z,4.60
2023-12-24T11:53:20.768Z,3.90
2023-12-24T11:56:13.008Z,3.70
2023-12-24T12:01:46.382Z,3.60
2023-12-24T12:04:32.356Z,4.00
2023-12-24T12:07:18.188Z,4.20
2023-12-24T12:10:05.206Z,4.60
2023-12-24T12:12:51.997Z,6.80
2023-12-24T12:15:38.229Z,5.30
2023-12-24T12:18:24.442Z,4.50
2023-12-24T12:21:13.764Z,3.70
2023-12-24T12:23:59.957Z,6.60
2023-12-24T12:26:46.444Z,5.00
2023-12-24T12:29:33.102Z,6.40
2023-12-24T12:32:19.414Z,7.30
2023-12-24T12:35:05.859Z,5.10
2023-12-24T12:37:52.485Z,5.50
2023-12-24T12:40:44.223Z,6.00
2023-12-24T12:43:36.301Z,5.10
2023-12-24T12:46:23.092Z,3.90
2023-12-24T12:49:09.821Z,4.40
2023-12-24T12:51:56.276Z,3.90
2023-12-24T12:54:42.465Z,3.80
2023-12-24T12:57:30.484Z,3.90
2023-12-24T13:00:22.098Z,4.40
2023-12-24T13:03:09.535Z,4.00
2023-12-24T13:05:58.296Z,3.10
2023-12-24T13:08:44.750Z,4.60
2023-12-24T13:11:31.349Z,4.90
2023-12-24T13:14:20.646Z,4.40
2023-12-24T13:17:11.129Z,4.30
2023-12-24T13:19:57.264Z,4.10
2023-12-24T13:22:43.992Z,4.10
2023-12-24T13:25:32.069Z,4.70
2023-12-24T13:28:19.119Z,4.50
2023-12-24T13:31:05.258Z,4.70
2023-12-24T13:33:51.506Z,4.60
2023-12-24T13:36:37.957Z,4.10
2023-12-24T13:39:23.877Z,5.00
2023-12-24T13:42:09.964Z,3.90
2023-12-24T13:44:56.351Z,4.10
2023-12-24T13:47:42.680Z,3.50
2023-12-24T13:50:29.135Z,4.60
2023-12-24T13:53:24.614Z,5.20
2023-12-24T13:56:17.925Z,5.10
2023-12-24T13:59:06.862Z,4.40
2023-12-24T14:01:53.685Z,5.10
2023-12-24T14:04:39.928Z,4.50
2023-12-24T14:07:31.406Z,3.90
2023-12-24T14:10:18.989Z,3.20
2023-12-24T14:13:05.403Z,3.80
2023-12-24T14:15:51.487Z,4.00
2023-12-24T14:18:37.736Z,4.30
2023-12-24T14:21:24.129Z,3.80
2023-12-24T14:24:10.572Z,4.50
2023-12-24T14:26:56.562Z,3.60
2023-12-24T14:29:42.671Z,4.60
2023-12-24T14:32:29.943Z,4.50
2023-12-24T14:35:16.336Z,3.80
2023-12-24T14:38:02.585Z,4.10
2023-12-24T14:40:49.098Z,4.50
2023-12-24T14:43:35.417Z,3.50
2023-12-24T14:46:21.400Z,3.80
2023-12-24T14:49:07.577Z,3.90
2023-12-24T14:51:53.695Z,3.80
2023-12-24T14:54:40.229Z,4.60
2023-12-24T14:57:27.601Z,4.10
2023-12-24T15:00:14.335Z,4.20
2023-12-24T15:03:00.738Z,4.20
2023-12-24T15:05:47.032Z,4.30
2023-12-24T15:08:33.363Z,3.80
2023-12-24T15:11:20.908Z,4.70
2023-12-24T15:14:09.202Z,5.00
2023-12-24T15:16:55.337Z,4.90
2023-12-24T15:19:41.305Z,5.50
2023-12-24T15:22:28.625Z,3.90
2023-12-24T15:25:14.529Z,5.60
2023-12-24T15:28:00.685Z,4.90
2023-12-24T15:30:51.606Z,4.50
2023-12-24T15:33:38.274Z,4.50
2023-12-24T15:36:24.358Z,4.80
2023-12-24T15:39:10.407Z,5.10
2023-12-24T15:41:58.318Z,4.70
2023-12-24T15:44:44.938Z,4.30
2023-12-24T15:47:32.239Z,4.40
2023-12-24T15:50:19.269Z,4.20
2023-12-24T15:53:05.735Z,4.60
2023-12-24T15:55:51.707Z,4.80
2023-12-24T15:58:37.733Z,4.40
2023-12-24T16:01:23.721Z,5.00
2023-12-24T16:04:10.387Z,4.00
2023-12-24T16:06:56.754Z,4.20
2023-12-24T16:09:42.756Z,3.60
2023-12-24T16:12:28.755Z,3.40
2023-12-24T16:15:16.076Z,4.10
2023-12-24T16:18:02.749Z,3.90
2023-12-24T16:20:49.175Z,4.90
2023-12-24T16:23:35.749Z,4.50
2023-12-24T16:26:22.248Z,4.60
2023-12-24T16:29:08.614Z,3.90
2023-12-24T16:31:54.573Z,4.40
2023-12-24T16:34:40.596Z,4.20
2023-12-24T16:37:26.651Z,3.40
2023-12-24T16:40:12.938Z,4.20
2023-12-24T16:42:59.301Z,3.90
2023-12-24T16:45:45.771Z,5.20
2023-12-24T16:48:32.469Z,4.50
2023-12-24T16:51:20.167Z,4.30
2023-12-24T16:54:06.825Z,4.20
2023-12-24T16:56:53.054Z,5.50
2023-12-24T16:59:39.825Z,4.00
2023-12-24T17:02:28.222Z,4.40
2023-12-24T17:05:14.769Z,4.60
2023-12-24T17:11:17.006Z,4.70
2023-12-24T17:14:03.570Z,4.60
2023-12-24T17:16:50.221Z,4.90
2023-12-24T17:19:36.307Z,4.20
2023-12-24T17:22:22.815Z,4.30
2023-12-24T17:25:09.032Z,4.20
2023-12-24T17:27:55.334Z,3.50
2023-12-24T17:30:41.919Z,3.80
2023-12-24T17:33:28.279Z,3.60
2023-12-24T17:36:18.814Z,3.70
2023-12-24T17:39:05.679Z,3.40
2023-12-24T17:41:52.348Z,4.00
2023-12-24T17:44:38.958Z,3.70
2023-12-24T17:47:26.344Z,3.50
2023-12-24T17:50:12.933Z,3.40
2023-12-24T17:52:59.403Z,3.30
2023-12-24T17:55:45.656Z,3.00
2023-12-24T17:58:31.665Z,2.60
2023-12-24T18:01:17.609Z,3.40
2023-12-24T18:04:04.615Z,2.90
2023-12-24T18:06:50.976Z,2.60
2023-12-24T18:09:37.336Z,3.20
2023-12-24T18:12:23.949Z,2.80
2023-12-24T18:15:10.234Z,3.60
2023-12-24T18:17:56.366Z,3.20
2023-12-24T18:20:42.520Z,3.10
2023-12-24T18:23:29.055Z,3.90
2023-12-24T18:26:16.578Z,4.20
2023-12-24T18:29:04.539Z,3.40
2023-12-24T18:31:50.700Z,4.90
2023-12-24T18:34:36.747Z,3.90
2023-12-24T18:37:24.047Z,4.10
2023-12-24T18:40:11.000Z,3.70
2023-12-24T18:42:57.140Z,3.30
2023-12-24T18:45:43.532Z,3.30
2023-12-24T18:48:29.739Z,3.20
2023-12-24T18:51:22.059Z,2.80
2023-12-24T18:54:08.382Z,3.10
2023-12-24T18:56:54.362Z,4.10
2023-12-24T18:59:40.926Z,3.00
2023-12-24T19:02:27.106Z,3.60
2023-12-24T19:05:14.911Z,3.30
2023-12-24T19:08:01.264Z,2.70
2023-12-24T19:10:47.680Z,3.50
2023-12-24T19:13:33.801Z,2.90
2023-12-24T19:16:19.759Z,3.60
2023-12-24T19:19:06.337Z,3.50
2023-12-24T19:21:53.047Z,4.50
2023-12-24T19:24:39.337Z,4.20
2023-12-24T19:27:25.453Z,4.30
2023-12-24T19:30:12.023Z,4.60
2023-12-24T19:32:58.579Z,5.00
2023-12-24T19:35:45.181Z,3.70
2023-12-24T19:38:31.344Z,5.00
2023-12-24T19:41:18.739Z,5.20
2023-12-24T19:44:04.784Z,5.90
2023-12-24T19:46:51.169Z,6.40
2023-12-24T19:49:38.317Z,6.30
2023-12-24T19:52:35.707Z,8.20
2023-12-24T19:55:26.045Z,7.80
2023-12-24T19:58:12.557Z,9.60
2023-12-24T20:00:58.892Z,10.90
2023-12-24T20:03:44.983Z,9.30
2023-12-24T20:06:31.009Z,9.20
2023-12-24T20:09:17.101Z,8.60
2023-12-24T20:12:03.872Z,9.30
2023-12-24T20:14:50.227Z,9.80
2023-12-24T20:17:37.062Z,8.90
2023-12-24T20:20:23.650Z,10.00
2023-12-24T20:23:10.435Z,8.70
2023-12-24T20:25:56.787Z,8.60
2023-12-24T20:28:42.733Z,8.40
2023-12-24T20:31:28.616Z,9.30
2023-12-24T20:34:15.314Z,8.00
2023-12-24T20:37:01.421Z,7.50
2023-12-24T20:39:47.570Z,7.80
2023-12-24T20:42:33.565Z,8.80
2023-12-24T20:45:19.628Z,7.50
2023-12-24T20:48:06.024Z,8.70
2023-12-24T20:50:52.426Z,8.40
2023-12-24T20:53:38.791Z,8.80
2023-12-24T20:56:25.013Z,9.70
2023-12-24T20:59:11.186Z,8.90
2023-12-24T21:01:57.104Z,8.90
2023-12-24T21:04:44.158Z,9.30
2023-12-24T21:07:30.360Z,7.60
2023-12-24T21:10:16.688Z,8.00
2023-12-24T21:13:03.183Z,7.80
2023-12-24T21:15:49.170Z,8.70
2023-12-24T21:18:35.409Z,7.70
2023-12-24T21:21:22.223Z,8.70
2023-12-24T21:24:08.859Z,9.00
2023-12-24T21:26:55.259Z,9.10
2023-12-24T21:29:41.407Z,9.10
2023-12-24T21:32:28.019Z,9.40
2023-12-24T21:35:14.487Z,8.20
2023-12-24T21:38:01.444Z,9.40
2023-12-24T21:40:47.479Z,8.40
2023-12-24T21:43:36.296Z,8.30
2023-12-24T21:46:22.949Z,8.20
2023-12-24T21:49:09.644Z,7.70
2023-12-24T21:51:55.973Z,8.00
2023-12-24T21:54:42.555Z,6.70
2023-12-24T21:57:28.880Z,7.80
2023-12-24T22:00:15.344Z,7.20
2023-12-24T22:03:01.426Z,7.10
2023-12-24T22:05:47.913Z,7.10
2023-12-24T22:08:34.682Z,7.50
2023-12-24T22:11:21.924Z,7.00
2023-12-24T22:14:08.628Z,6.40
2023-12-24T22:16:54.928Z,7.10
2023-12-24T22:19:41.988Z,6.20
2023-12-24T22:22:28.515Z,7.30
2023-12-24T22:25:15.120Z,7.80
2023-12-24T22:28:01.972Z,7.70
2023-12-24T22:30:48.371Z,8.00
2023-12-24T22:33:35.137Z,7.00
2023-12-24T22:36:21.393Z,6.80
2023-12-24T22:39:07.634Z,6.90
2023-12-24T22:41:54.290Z,6.80
2023-12-24T22:44:43.464Z,7.00
2023-12-24T22:47:30.112Z,7.80
2023-12-24T22:50:16.572Z,7.60
2023-12-24T22:53:04.074Z,7.30
2023-12-24T22:55:51.113Z,7.20
2023-12-24T22:58:40.474Z,9.20
2023-12-24T23:01:26.461Z,7.40
2023-12-24T23:04:12.690Z,7.90
2023-12-24T23:06:58.834Z,7.50
2023-12-24T23:09:44.920Z,8.00
2023-12-24T23:12:30.911Z,8.30
2023-12-24T23:15:16.903Z,8.70
2023-12-24T23:18:04.181Z,9.70
2023-12-24T23:20:50.568Z,10.50
2023-12-24T23:23:37.211Z,9.30
2023-12-24T23:26:23.807Z,9.10
2023-12-24T23:29:09.825Z,8.40
2023-12-24T23:31:55.726Z,8.80
2023-12-24T23:34:41.830Z,7.70
2023-12-24T23:37:29.509Z,9.30
2023-12-24T23:40:15.848Z,8.90
2023-12-24T23:43:02.425Z,9.20
2023-12-24T23:45:48.395Z,8.30
2023-12-24T23:48:34.592Z,9.00
2023-12-24T23:51:21.072Z,11.50
2023-12-24T23:54:07.481Z,9.20
2023-12-24T23:56:53.717Z,10.00
2023-12-24T23:59:41.464Z,10.90
